Time;durP1;ratioP1;P1;durP2;ratioP2;P2;SDS_P1;SDS_P2;PMS_P1;PMS_P2;Temp;Humidity;BMP_temperature;BMP_pressure;BME280_temperature;BME280_humidity;BME280_pressure;Samples;Min_cycle;Max_cycle;Signal;HPM_P1;HPM_P2
2023/06/26 00:01:43;;;;;;;;;;;;;;;;;;5067839;28;19935;-64
2023/06/26 00:04:14;;;;;;;;;;;;;;;;;;5064500;28;19936;-64
2023/06/26 00:06:40;;;;;;;;;;;;;;;;;;5073105;28;19920;-64
2023/06/26 00:09:06;;;;;;;;;;;;;;;;;;5073344;28;19929;-64
2023/06/26 00:11:33;;;;;;;;;;;;;;;;;;5077630;28;19985;-64
2023/06/26 00:14:00;;;;;;;;;;;;;;;;;;5070537;28;20289;-63
2023/06/26 00:16:25;;;;;;;;;;;;;;;;;;5070243;28;20025;-64
2023/06/26 00:18:51;;;;;;;;;;;;;;;;;;5073677;28;20019;-64
2023/06/26 00:21:18;;;;;;;;;;;;;;;;;;5072354;28;20641;-64
2023/06/26 00:23:44;;;;;;;;;;;;;;;;;;5069184;28;19932;-64
2023/06/26 00:26:10;;;;;;;;;;;;;;;;;;5073275;28;19920;-64
2023/06/26 00:28:36;;;;;;;;;;;;;;;;;;5063247;28;20110;-64
2023/06/26 00:31:02;;;;;;;;;;;;;;;;;;5068618;28;19928;-64
2023/06/26 00:33:28;;;;;;;;;;;;;;;;;;5073498;28;20007;-64
2023/06/26 00:35:54;;;;;;;;;;;;;;;;;;5071944;28;19920;-64
2023/06/26 00:38:20;;;;;;;;;;;;;;;;;;5071014;28;20385;-64
2023/06/26 00:40:46;;;;;;;;;;;;;;;;;;5072382;28;19928;-64
2023/06/26 00:43:11;;;;;;;;;;;;;;;;;;5071192;28;20008;-64
2023/06/26 00:45:37;;;;;;;;;;;;;;;;;;5070824;28;19927;-64
2023/06/26 00:48:03;;;;;;;;;;;;;;;;;;5066465;28;19927;-64
2023/06/26 00:50:29;;;;;;;;;;;;;;;;;;5069352;28;19924;-64
2023/06/26 00:53:00;;;;;;;;;;;;;;;;;;5070349;28;20046;-64
2023/06/26 00:55:26;;;;;;;;;;;;;;;;;;5070788;28;20047;-65
2023/06/26 00:57:51;;;;;;;;;;;;;;;;;;5071984;28;20011;-64
2023/06/26 01:00:17;;;;;;;;;;;;;;;;;;5070240;28;20404;-64
2023/06/26 01:02:43;;;;;;;;;;;;;;;;;;5081520;28;19921;-64
2023/06/26 01:05:12;;;;;;;;;;;;;;;;;;5068045;28;19924;-64
2023/06/26 01:07:39;;;;;;;;;;;;;;;;;;5071369;28;19924;-64
2023/06/26 01:10:04;;;;;;;;;;;;;;;;;;5070813;28;20003;-64
2023/06/26 01:12:31;;;;;;;;;;;;;;;;;;5067085;28;19925;-64
2023/06/26 01:14:57;;;;;;;;;;;;;;;;;;5071777;28;19924;-64
2023/06/26 01:17:23;;;;;;;;;;;;;;;;;;5070888;28;20251;-64
2023/06/26 01:19:49;;;;;;;;;;;;;;;;;;5078197;28;19924;-64
2023/06/26 01:22:15;;;;;;;;;;;;;;;;;;5073217;28;19983;-64
2023/06/26 01:24:41;;;;;;;;;;;;;;;;;;5069107;28;19925;-64
2023/06/26 01:27:07;;;;;;;;;;;;;;;;;;5069574;28;20293;-64
2023/06/26 01:29:33;;;;;;;;;;;;;;;;;;5071653;28;19924;-64
2023/06/26 01:31:59;;;;;;;;;;;;;;;;;;5070993;28;19948;-64
2023/06/26 01:34:24;;;;;;;;;;;;;;;;;;5071301;28;20255;-64
2023/06/26 01:36:50;;;;;;;;;;;;;;;;;;5071432;28;19925;-64
2023/06/26 01:39:16;;;;;;;;;;;;;;;;;;5071222;28;19928;-64
2023/06/26 01:41:42;;;;;;;;;;;;;;;;;;5072319;28;20019;-65
2023/06/26 01:44:08;;;;;;;;;;;;;;;;;;5067478;28;20102;-65
2023/06/26 01:46:34;;;;;;;;;;;;;;;;;;5069093;28;19943;-64
2023/06/26 01:49:00;;;;;;;;;;;;;;;;;;5069684;28;19920;-64
2023/06/26 01:51:26;;;;;;;;;;;;;;;;;;5066344;28;19986;-64
2023/06/26 01:53:52;;;;;;;;;;;;;;;;;;5074867;28;19927;-64
2023/06/26 01:56:18;;;;;;;;;;;;;;;;;;5068890;28;20059;-65
2023/06/26 01:58:44;;;;;;;;;;;;;;;;;;5071173;28;19928;-65
2023/06/26 02:01:10;;;;;;;;;;;;;;;;;;5064319;28;19927;-65
2023/06/26 02:03:36;;;;;;;;;;;;;;;;;;5069491;28;20340;-65
2023/06/26 02:06:02;;;;;;;;;;;;;;;;;;5067426;28;19994;-65
2023/06/26 02:08:28;;;;;;;;;;;;;;;;;;5069660;28;19932;-65
2023/06/26 02:10:54;;;;;;;;;;;;;;;;;;5073095;28;19982;-65
2023/06/26 02:13:20;;;;;;;;;;;;;;;;;;5068635;28;20018;-65
2023/06/26 02:15:46;;;;;;;;;;;;;;;;;;5068497;28;19921;-65
2023/06/26 02:18:11;;;;;;;;;;;;;;;;;;5070459;28;19924;-65
2023/06/26 02:20:37;;;;;;;;;;;;;;;;;;5071421;28;20370;-64
2023/06/26 02:23:03;;;;;;;;;;;;;;;;;;5069947;28;19927;-64
2023/06/26 02:25:29;;;;;;;;;;;;;;;;;;5069079;28;19957;-64
2023/06/26 02:27:55;;;;;;;;;;;;;;;;;;5073800;28;20007;-64
2023/06/26 02:30:21;;;;;;;;;;;;;;;;;;5066398;28;19924;-64
2023/06/26 02:32:47;;;;;;;;;;;;;;;;;;5069853;28;19920;-64
2023/06/26 02:35:13;;;;;;;;;;;;;;;;;;5071111;28;19935;-64
2023/06/26 02:37:39;;;;;;;;;;;;;;;;;;5070445;28;20446;-64
2023/06/26 02:40:05;;;;;;;;;;;;;;;;;;5070022;28;19925;-64
2023/06/26 02:42:30;;;;;;;;;;;;;;;;;;5069932;28;20366;-64
2023/06/26 02:44:57;;;;;;;;;;;;;;;;;;5070801;28;19920;-64
2023/06/26 02:47:22;;;;;;;;;;;;;;;;;;5062682;28;20084;-64
2023/06/26 02:49:48;;;;;;;;;;;;;;;;;;5070242;28;20052;-64
2023/06/26 02:52:14;;;;;;;;;;;;;;;;;;5069151;28;19920;-64
2023/06/26 02:54:40;;;;;;;;;;;;;;;;;;5066599;28;20584;-64
2023/06/26 02:57:06;;;;;;;;;;;;;;;;;;5069738;28;20300;-64
2023/06/26 02:59:32;;;;;;;;;;;;;;;;;;5068397;28;20023;-64
2023/06/26 03:01:58;;;;;;;;;;;;;;;;;;5068986;28;19932;-64
2023/06/26 03:04:24;;;;;;;;;;;;;;;;;;5066630;28;19925;-64
2023/06/26 03:06:50;;;;;;;;;;;;;;;;;;5068086;28;19951;-64
2023/06/26 03:09:16;;;;;;;;;;;;;;;;;;5070090;28;19928;-64
2023/06/26 03:11:42;;;;;;;;;;;;;;;;;;5070600;28;19924;-64
2023/06/26 03:14:08;;;;;;;;;;;;;;;;;;5068939;28;19924;-64
2023/06/26 03:16:34;;;;;;;;;;;;;;;;;;5069700;28;20280;-64
2023/06/26 03:19:00;;;;;;;;;;;;;;;;;;5070833;28;20015;-64
2023/06/26 03:21:26;;;;;;;;;;;;;;;;;;5066315;28;19950;-64
2023/06/26 03:23:52;;;;;;;;;;;;;;;;;;5068579;28;19924;-65
2023/06/26 03:26:18;;;;;;;;;;;;;;;;;;5070460;28;19920;-64
2023/06/26 03:28:43;;;;;;;;;;;;;;;;;;5069260;28;19921;-64
2023/06/26 03:31:10;;;;;;;;;;;;;;;;;;5068563;28;19921;-64
2023/06/26 03:33:35;;;;;;;;;;;;;;;;;;5068930;28;20424;-64
2023/06/26 03:36:01;;;;;;;;;;;;;;;;;;5069970;28;19921;-64
2023/06/26 03:38:27;;;;;;;;;;;;;;;;;;5054523;28;19932;-63
2023/06/26 03:40:53;;;;;;;;;;;;;;;;;;5073714;28;19920;-64
2023/06/26 03:43:19;;;;;;;;;;;;;;;;;;5074134;28;19999;-63
2023/06/26 03:45:46;;;;;;;;;;;;;;;;;;5070699;28;19920;-64
2023/06/26 03:48:12;;;;;;;;;;;;;;;;;;5073300;28;20019;-64
2023/06/26 03:50:38;;;;;;;;;;;;;;;;;;5074182;28;20018;-64
2023/06/26 03:53:03;;;;;;;;;;;;;;;;;;5074196;28;20370;-64
2023/06/26 03:55:29;;;;;;;;;;;;;;;;;;5067358;28;19939;-65
2023/06/26 03:57:55;;;;;;;;;;;;;;;;;;5072487;28;20477;-64
2023/06/26 04:00:21;;;;;;;;;;;;;;;;;;5070952;28;19936;-64
2023/06/26 04:02:47;;;;;;;;;;;;;;;;;;5072093;28;20077;-63
2023/06/26 04:05:14;;;;;;;;;;;;;;;;;;5071630;28;20352;-63
2023/06/26 04:07:40;;;;;;;;;;;;;;;;;;5071142;28;19925;-64
2023/06/26 04:10:06;;;;;;;;;;;;;;;;;;5073136;28;19924;-64
2023/06/26 04:12:31;;;;;;;;;;;;;;;;;;5061833;28;19950;-64
2023/06/26 04:14:57;;;;;;;;;;;;;;;;;;5070144;28;19928;-64
2023/06/26 04:17:23;;;;;;;;;;;;;;;;;;5072363;28;20281;-64
2023/06/26 04:19:49;;;;;;;;;;;;;;;;;;5073219;28;19925;-64
2023/06/26 04:22:15;;;;;;;;;;;;;;;;;;5070153;28;20141;-64
2023/06/26 04:24:41;;;;;;;;;;;;;;;;;;5072023;28;19928;-64
2023/06/26 04:27:07;;;;;;;;;;;;;;;;;;5073706;28;19969;-64
2023/06/26 04:29:33;;;;;;;;;;;;;;;;;;5049689;28;19928;-64
2023/06/26 04:31:59;;;;;;;;;;;;;;;;;;5069595;28;19966;-64
2023/06/26 04:34:25;;;;;;;;;;;;;;;;;;5073042;28;20366;-64
2023/06/26 04:36:51;;;;;;;;;;;;;;;;;;5073305;28;20023;-64
2023/06/26 04:39:17;;;;;;;;;;;;;;;;;;5072513;28;19924;-65
2023/06/26 04:41:43;;;;;;;;;;;;;;;;;;5069593;28;19947;-65
2023/06/26 04:44:09;;;;;;;;;;;;;;;;;;5075017;28;19970;-65
2023/06/26 04:46:35;;;;;;;;;;;;;;;;;;5068669;28;19928;-65
2023/06/26 04:49:03;;;;;;;;;;;;;;;;;;5072581;28;19921;-65
2023/06/26 04:51:29;;;;;;;;;;;;;;;;;;5071495;28;19990;-65
2023/06/26 04:53:54;;;;;;;;;;;;;;;;;;5072341;28;20402;-65
2023/06/26 04:56:20;;;;;;;;;;;;;;;;;;5072650;28;19970;-64
2023/06/26 04:58:46;;;;;;;;;;;;;;;;;;5071903;28;20290;-63
2023/06/26 05:01:13;;;;;;;;;;;;;;;;;;5072991;28;19921;-63
2023/06/26 05:03:39;;;;;;;;;;;;;;;;;;5070317;28;20544;-64
2023/06/26 05:06:05;;;;;;;;;;;;;;;;;;5070990;28;20011;-64
2023/06/26 05:08:31;;;;;;;;;;;;;;;;;;5070537;28;19929;-64
2023/06/26 05:11:00;;;;;;;;;;;;;;;;;;5070712;28;20286;-64
2023/06/26 05:13:26;;;;;;;;;;;;;;;;;;5070987;28;19920;-64
2023/06/26 05:15:51;;;;;;;;;;;;;;;;;;5068794;28;19925;-64
2023/06/26 05:18:17;;;;;;;;;;;;;;;;;;5063722;28;19928;-64
2023/06/26 05:20:43;;;;;;;;;;;;;;;;;;5069614;22;19912;-62
2023/06/26 05:23:09;;;;;;;;;;;;;;;;;;5031924;28;19922;-62
2023/06/26 05:25:35;;;;;;;;;;;;;;;;;;5033545;28;19932;-61
2023/06/26 05:28:01;;;;;;;;;;;;;;;;;;5033200;28;20394;-62
2023/06/26 05:30:27;;;;;;;;;;;;;;;;;;5015037;28;19928;-62
2023/06/26 05:32:53;;;;;;;;;;;;;;;;;;5015454;28;19927;-62
2023/06/26 05:35:19;;;;;;;;;;;;;;;;;;5031907;28;19925;-62
2023/06/26 05:37:45;;;;;;;;;;;;;;;;;;5028447;28;19932;-62
2023/06/26 05:40:10;;;;;;;;;;;;;;;;;;5014926;28;19944;-63
2023/06/26 05:42:36;;;;;;;;;;;;;;;;;;5032974;28;19921;-62
2023/06/26 05:45:02;;;;;;;;;;;;;;;;;;5014291;28;19932;-62
2023/06/26 05:47:28;;;;;;;;;;;;;;;;;;5014363;28;20543;-62
2023/06/26 05:49:54;;;;;;;;;;;;;;;;;;5031717;28;19979;-61
2023/06/26 05:52:20;;;;;;;;;;;;;;;;;;5030411;28;19921;-62
2023/06/26 05:54:46;;;;;;;;;;;;;;;;;;5011961;28;20004;-61
2023/06/26 05:57:12;;;;;;;;;;;;;;;;;;5031217;28;19931;-62
2023/06/26 05:59:38;;;;;;;;;;;;;;;;;;5014270;28;19921;-62
2023/06/26 06:02:03;;;;;;;;;;;;;;;;;;5012149;28;20677;-62
2023/06/26 06:04:29;;;;;;;;;;;;;;;;;;5032190;28;20011;-62
2023/06/26 06:06:55;;;;;;;;;;;;;;;;;;5032283;28;20434;-62
2023/06/26 06:09:21;;;;;;;;;;;;;;;;;;5012294;28;19925;-62
2023/06/26 06:11:47;;;;;;;;;;;;;;;;;;5031663;28;19947;-62
2023/06/26 06:14:13;;;;;;;;;;;;;;;;;;5031664;28;19925;-62
2023/06/26 06:16:39;;;;;;;;;;;;;;;;;;5013670;28;19925;-62
2023/06/26 06:19:06;;;;;;;;;;;;;;;;;;5030071;28;19944;-62
2023/06/26 06:21:32;;;;;;;;;;;;;;;;;;5030889;28;20074;-62
2023/06/26 06:23:58;;;;;;;;;;;;;;;;;;5024739;28;20417;-61
2023/06/26 06:26:24;;;;;;;;;;;;;;;;;;5010245;28;19925;-62
2023/06/26 06:28:50;;;;;;;;;;;;;;;;;;5030861;28;19925;-62
2023/06/26 06:31:16;;;;;;;;;;;;;;;;;;5012480;28;19929;-62
2023/06/26 06:33:42;;;;;;;;;;;;;;;;;;5018021;28;19921;-62
2023/06/26 06:36:08;;;;;;;;;;;;;;;;;;5026653;28;20032;-62
2023/06/26 06:38:34;;;;;;;;;;;;;;;;;;5031293;28;20024;-62
2023/06/26 06:41:00;;;;;;;;;;;;;;;;;;5013439;28;20011;-62
2023/06/26 06:43:26;;;;;;;;;;;;;;;;;;5009108;28;19927;-62
2023/06/26 06:45:52;;;;;;;;;;;;;;;;;;5029802;28;19935;-61
2023/06/26 06:48:18;;;;;;;;;;;;;;;;;;5008703;28;20012;-61
2023/06/26 06:50:43;;;;;;;;;;;;;;;;;;5011282;28;20651;-62
2023/06/26 06:53:10;;;;;;;;;;;;;;;;;;5028973;28;19968;-62
2023/06/26 06:55:36;;;;;;;;;;;;;;;;;;5030407;28;20530;-62
2023/06/26 06:58:02;;;;;;;;;;;;;;;;;;5029044;28;19929;-61
2023/06/26 07:00:28;;;;;;;;;;;;;;;;;;5012930;28;19928;-62
2023/06/26 07:02:56;;;;;;;;;;;;;;;;;;5012731;28;19982;-61
2023/06/26 07:05:22;;;;;;;;;;;;;;;;;;5012497;28;19928;-62
2023/06/26 07:07:48;;;;;;;;;;;;;;;;;;5030295;28;19925;-62
2023/06/26 07:10:14;;;;;;;;;;;;;;;;;;5028130;28;19949;-62
2023/06/26 07:12:39;;;;;;;;;;;;;;;;;;5025133;28;19974;-62
2023/06/26 07:15:05;;;;;;;;;;;;;;;;;;5035016;28;19925;-62
2023/06/26 07:17:31;;;;;;;;;;;;;;;;;;5029763;28;19952;-62
2023/06/26 07:19:57;;;;;;;;;;;;;;;;;;5031768;28;19964;-62
2023/06/26 07:22:23;;;;;;;;;;;;;;;;;;5032366;28;20008;-62
2023/06/26 07:24:49;;;;;;;;;;;;;;;;;;5016981;28;20330;-62
2023/06/26 07:27:15;;;;;;;;;;;;;;;;;;5013568;28;19925;-62
2023/06/26 07:29:41;;;;;;;;;;;;;;;;;;5008895;28;19983;-62
2023/06/26 07:32:07;;;;;;;;;;;;;;;;;;5029376;28;20344;-62
2023/06/26 07:34:33;;;;;;;;;;;;;;;;;;4998217;28;19925;-62
2023/06/26 07:36:59;;;;;;;;;;;;;;;;;;5025807;28;20020;-62
2023/06/26 07:39:25;;;;;;;;;;;;;;;;;;5015516;28;19921;-62
2023/06/26 07:41:51;;;;;;;;;;;;;;;;;;5011001;28;20012;-62
2023/06/26 07:44:17;;;;;;;;;;;;;;;;;;5033422;28;19947;-62
2023/06/26 07:46:44;;;;;;;;;;;;;;;;;;5015154;28;20358;-63
2023/06/26 07:49:10;;;;;;;;;;;;;;;;;;5010627;28;19995;-63
2023/06/26 07:51:36;;;;;;;;;;;;;;;;;;5032198;28;19925;-63
2023/06/26 07:54:02;;;;;;;;;;;;;;;;;;5009311;28;20339;-62
2023/06/26 07:56:28;;;;;;;;;;;;;;;;;;5032317;28;19983;-62
2023/06/26 07:58:54;;;;;;;;;;;;;;;;;;5032616;28;20027;-62
2023/06/26 08:01:19;;;;;;;;;;;;;;;;;;5033960;28;19986;-62
2023/06/26 08:03:45;;;;;;;;;;;;;;;;;;5032828;28;19929;-62
2023/06/26 08:06:11;;;;;;;;;;;;;;;;;;5031715;28;19925;-62
2023/06/26 08:08:37;;;;;;;;;;;;;;;;;;5013034;28;20406;-62
2023/06/26 08:11:03;;;;;;;;;;;;;;;;;;5030251;28;19995;-62
2023/06/26 08:13:29;;;;;;;;;;;;;;;;;;5031700;28;19961;-62
2023/06/26 08:15:55;;;;;;;;;;;;;;;;;;5031560;28;20564;-62
2023/06/26 08:18:21;;;;;;;;;;;;;;;;;;5034159;28;19935;-62
2023/06/26 08:20:47;;;;;;;;;;;;;;;;;;5030457;28;19925;-62
2023/06/26 08:23:12;;;;;;;;;;;;;;;;;;5013449;28;20282;-62
2023/06/26 08:25:38;;;;;;;;;;;;;;;;;;5014921;28;19921;-61
2023/06/26 08:28:04;;;;;;;;;;;;;;;;;;5031807;28;19951;-62
2023/06/26 08:30:30;;;;;;;;;;;;;;;;;;5031203;28;19982;-62
2023/06/26 08:32:56;;;;;;;;;;;;;;;;;;5032646;28;20032;-61
2023/06/26 08:35:22;;;;;;;;;;;;;;;;;;5034121;28;20278;-62
2023/06/26 08:37:48;;;;;;;;;;;;;;;;;;5025476;28;20007;-61
2023/06/26 08:40:14;;;;;;;;;;;;;;;;;;5018701;28;19964;-62
2023/06/26 08:42:40;;;;;;;;;;;;;;;;;;5031976;28;19925;-62
2023/06/26 08:45:06;;;;;;;;;;;;;;;;;;5030909;28;19928;-62
2023/06/26 08:47:31;;;;;;;;;;;;;;;;;;5032400;28;19925;-62
2023/06/26 08:49:57;;;;;;;;;;;;;;;;;;5030357;28;19986;-62
2023/06/26 08:52:23;;;;;;;;;;;;;;;;;;5030397;28;20359;-62
2023/06/26 08:54:49;;;;;;;;;;;;;;;;;;5033220;28;19928;-61
2023/06/26 08:57:15;;;;;;;;;;;;;;;;;;5015062;28;19929;-62
2023/06/26 08:59:41;;;;;;;;;;;;;;;;;;5033145;28;19949;-62
2023/06/26 09:02:07;;;;;;;;;;;;;;;;;;5026273;28;19984;-62
2023/06/26 09:04:33;;;;;;;;;;;;;;;;;;5023438;28;19921;-62
2023/06/26 09:06:59;;;;;;;;;;;;;;;;;;5015459;28;20480;-62
2023/06/26 09:09:25;;;;;;;;;;;;;;;;;;5017728;28;19933;-62
2023/06/26 09:11:51;;;;;;;;;;;;;;;;;;5021589;28;19928;-62
2023/06/26 09:14:16;;;;;;;;;;;;;;;;;;5031977;28;19921;-62
2023/06/26 09:16:42;;;;;;;;;;;;;;;;;;5030977;28;20115;-62
2023/06/26 09:19:08;;;;;;;;;;;;;;;;;;5032018;28;19975;-62
2023/06/26 09:21:34;;;;;;;;;;;;;;;;;;5032603;28;19978;-63
2023/06/26 09:24:00;;;;;;;;;;;;;;;;;;5014192;28;19928;-63
2023/06/26 09:26:26;;;;;;;;;;;;;;;;;;5032143;28;19921;-63
2023/06/26 09:28:52;;;;;;;;;;;;;;;;;;5030248;28;19925;-64
2023/06/26 09:31:20;;;;;;;;;;;;;;;;;;5029780;28;19921;-65
2023/06/26 09:33:48;;;;;;;;;;;;;;;;;;4993875;28;19929;-64
2023/06/26 09:36:14;;;;;;;;;;;;;;;;;;5020829;28;20007;-64
2023/06/26 09:38:39;;;;;;;;;;;;;;;;;;5031493;28;20016;-64
2023/06/26 09:41:05;;;;;;;;;;;;;;;;;;5029169;28;20535;-64
2023/06/26 09:43:31;;;;;;;;;;;;;;;;;;5032050;28;19921;-65
2023/06/26 09:45:58;;;;;;;;;;;;;;;;;;5025277;28;19932;-64
2023/06/26 09:48:24;;;;;;;;;;;;;;;;;;5023283;28;20015;-64
2023/06/26 09:50:50;;;;;;;;;;;;;;;;;;5031676;28;20434;-64
2023/06/26 09:53:18;;;;;;;;;;;;;;;;;;5014256;28;19925;-64
2023/06/26 09:55:44;;;;;;;;;;;;;;;;;;5032415;28;19929;-64
2023/06/26 09:58:10;;;;;;;;;;;;;;;;;;5027510;28;20302;-65
2023/06/26 10:00:36;;;;;;;;;;;;;;;;;;5009725;28;19968;-64
2023/06/26 10:03:01;;;;;;;;;;;;;;;;;;5031253;28;19929;-64
2023/06/26 10:05:27;;;;;;;;;;;;;;;;;;5030548;28;19932;-65
2023/06/26 10:07:53;;;;;;;;;;;;;;;;;;5029228;28;19925;-65
2023/06/26 10:10:19;;;;;;;;;;;;;;;;;;5026787;28;19928;-65
2023/06/26 10:12:45;;;;;;;;;;;;;;;;;;4990603;28;19921;-65
2023/06/26 10:15:13;;;;;;;;;;;;;;;;;;5027248;28;19932;-64
2023/06/26 10:17:39;;;;;;;;;;;;;;;;;;5032168;28;19933;-64
2023/06/26 10:20:06;;;;;;;;;;;;;;;;;;5030795;28;20406;-65
2023/06/26 10:22:32;;;;;;;;;;;;;;;;;;5030314;28;19948;-65
2023/06/26 10:24:57;;;;;;;;;;;;;;;;;;5030855;28;19925;-64
2023/06/26 10:27:23;;;;;;;;;;;;;;;;;;5028546;28;19921;-64
2023/06/26 10:29:49;;;;;;;;;;;;;;;;;;5024101;28;19943;-64
2023/06/26 10:32:15;;;;;;;;;;;;;;;;;;5012950;28;20019;-63
2023/06/26 10:34:41;;;;;;;;;;;;;;;;;;5025886;28;20008;-63
2023/06/26 10:37:07;;;;;;;;;;;;;;;;;;5028844;28;21796;-63
2023/06/26 10:39:33;;;;;;;;;;;;;;;;;;5020266;28;19930;-62
2023/06/26 10:41:59;;;;;;;;;;;;;;;;;;5026954;28;19928;-63
2023/06/26 10:44:25;;;;;;;;;;;;;;;;;;5023629;28;20411;-63
2023/06/26 10:46:52;;;;;;;;;;;;;;;;;;5030155;28;19921;-63
2023/06/26 10:49:18;;;;;;;;;;;;;;;;;;5030581;28;20027;-63
2023/06/26 10:51:44;;;;;;;;;;;;;;;;;;5013213;28;20004;-63
2023/06/26 10:54:10;;;;;;;;;;;;;;;;;;5030053;28;19925;-63
2023/06/26 10:56:36;;;;;;;;;;;;;;;;;;5030708;28;20347;-63
2023/06/26 10:59:03;;;;;;;;;;;;;;;;;;5027391;28;21302;-63
2023/06/26 11:01:29;;;;;;;;;;;;;;;;;;5026279;28;19925;-63
2023/06/26 11:03:55;;;;;;;;;;;;;;;;;;5025779;28;19932;-63
2023/06/26 11:06:21;;;;;;;;;;;;;;;;;;5012461;28;19921;-63
2023/06/26 11:08:47;;;;;;;;;;;;;;;;;;5021141;28;19929;-63
2023/06/26 11:11:13;;;;;;;;;;;;;;;;;;5023008;28;19929;-64
2023/06/26 11:13:39;;;;;;;;;;;;;;;;;;5027383;28;19925;-64
2023/06/26 11:16:05;;;;;;;;;;;;;;;;;;5025297;28;20319;-64
2023/06/26 11:18:31;;;;;;;;;;;;;;;;;;5024701;28;19929;-63
2023/06/26 11:20:57;;;;;;;;;;;;;;;;;;5024361;28;20015;-63
2023/06/26 11:23:24;;;;;;;;;;;;;;;;;;5020851;28;20405;-63
2023/06/26 11:25:50;;;;;;;;;;;;;;;;;;5020122;28;20436;-63
2023/06/26 11:28:16;;;;;;;;;;;;;;;;;;5030050;28;19925;-63
2023/06/26 11:30:42;;;;;;;;;;;;;;;;;;5028889;28;19931;-63
2023/06/26 11:33:08;;;;;;;;;;;;;;;;;;5028250;28;19921;-63
2023/06/26 11:35:34;;;;;;;;;;;;;;;;;;5028925;28;20302;-63
2023/06/26 11:38:03;;;;;;;;;;;;;;;;;;5027419;28;20023;-63
2023/06/26 11:40:31;;;;;;;;;;;;;;;;;;5026203;28;20321;-63
2023/06/26 11:42:57;;;;;;;;;;;;;;;;;;5030513;28;19999;-64
2023/06/26 11:45:23;;;;;;;;;;;;;;;;;;5011463;28;20048;-64
2023/06/26 11:47:49;;;;;;;;;;;;;;;;;;5027386;28;19931;-63
2023/06/26 11:50:14;;;;;;;;;;;;;;;;;;5012407;28;19983;-63
2023/06/26 11:52:40;;;;;;;;;;;;;;;;;;5012544;28;19964;-64
2023/06/26 11:55:06;;;;;;;;;;;;;;;;;;5028559;28;19921;-64
2023/06/26 11:57:32;;;;;;;;;;;;;;;;;;5006119;28;20554;-64
2023/06/26 11:59:58;;;;;;;;;;;;;;;;;;4995113;28;19925;-64
2023/06/26 12:02:24;;;;;;;;;;;;;;;;;;5001892;28;19956;-64
2023/06/26 12:04:50;;;;;;;;;;;;;;;;;;5027181;28;19921;-65
2023/06/26 12:07:16;;;;;;;;;;;;;;;;;;5015042;28;20028;-64
2023/06/26 12:09:43;;;;;;;;;;;;;;;;;;5015654;28;19925;-65
2023/06/26 12:12:09;;;;;;;;;;;;;;;;;;4999758;28;19921;-64
2023/06/26 12:14:35;;;;;;;;;;;;;;;;;;5035955;28;19932;-65
2023/06/26 12:17:01;;;;;;;;;;;;;;;;;;5015693;28;19932;-65
2023/06/26 12:19:27;;;;;;;;;;;;;;;;;;5018969;28;19921;-64
2023/06/26 12:21:53;;;;;;;;;;;;;;;;;;5032855;28;20003;-64
2023/06/26 12:24:19;;;;;;;;;;;;;;;;;;5034527;28;19990;-64
2023/06/26 12:26:45;;;;;;;;;;;;;;;;;;5027777;28;20418;-63
2023/06/26 12:29:11;;;;;;;;;;;;;;;;;;5016599;28;19921;-63
2023/06/26 12:31:37;;;;;;;;;;;;;;;;;;5011574;28;19953;-63
2023/06/26 12:34:03;;;;;;;;;;;;;;;;;;5029776;28;20008;-63
2023/06/26 12:36:29;;;;;;;;;;;;;;;;;;5029436;28;19921;-64
2023/06/26 12:38:55;;;;;;;;;;;;;;;;;;5011312;28;19928;-64
2023/06/26 12:41:21;;;;;;;;;;;;;;;;;;5014040;28;19929;-64
2023/06/26 12:43:47;;;;;;;;;;;;;;;;;;5022927;28;19976;-64
2023/06/26 12:46:12;;;;;;;;;;;;;;;;;;5033628;28;20019;-63
2023/06/26 12:48:43;;;;;;;;;;;;;;;;;;5023351;28;19936;-64
2023/06/26 12:51:09;;;;;;;;;;;;;;;;;;5028813;28;19921;-64
2023/06/26 12:53:35;;;;;;;;;;;;;;;;;;5032800;28;19921;-64
2023/06/26 12:56:01;;;;;;;;;;;;;;;;;;5006737;28;21099;-65
2023/06/26 12:58:27;;;;;;;;;;;;;;;;;;5017613;28;19961;-64
2023/06/26 13:00:53;;;;;;;;;;;;;;;;;;5019969;28;19943;-63
2023/06/26 13:03:20;;;;;;;;;;;;;;;;;;5028395;28;20389;-63
2023/06/26 13:05:47;;;;;;;;;;;;;;;;;;5002980;28;20310;-64
2023/06/26 13:08:13;;;;;;;;;;;;;;;;;;5030808;28;19925;-64
2023/06/26 13:10:39;;;;;;;;;;;;;;;;;;5029153;28;19991;-64
2023/06/26 13:13:05;;;;;;;;;;;;;;;;;;5013072;28;20020;-64
2023/06/26 13:15:31;;;;;;;;;;;;;;;;;;5029810;28;20003;-63
2023/06/26 13:17:58;;;;;;;;;;;;;;;;;;5006906;28;20355;-64
2023/06/26 13:20:23;;;;;;;;;;;;;;;;;;5019243;28;20012;-64
2023/06/26 13:22:49;;;;;;;;;;;;;;;;;;5027532;28;19929;-64
2023/06/26 13:25:15;;;;;;;;;;;;;;;;;;5032832;28;20366;-64
2023/06/26 13:27:41;;;;;;;;;;;;;;;;;;5032536;28;19925;-64
2023/06/26 13:30:07;;;;;;;;;;;;;;;;;;5003949;28;19925;-63
2023/06/26 13:32:33;;;;;;;;;;;;;;;;;;5029303;28;19952;-63
2023/06/26 13:34:59;;;;;;;;;;;;;;;;;;5026936;28;19925;-64
2023/06/26 13:37:25;;;;;;;;;;;;;;;;;;5032714;28;20424;-63
2023/06/26 13:39:51;;;;;;;;;;;;;;;;;;5032242;28;20427;-63
2023/06/26 13:42:17;;;;;;;;;;;;;;;;;;5026461;28;19925;-64
2023/06/26 13:44:43;;;;;;;;;;;;;;;;;;5026117;28;20448;-64
2023/06/26 13:47:09;;;;;;;;;;;;;;;;;;5026463;28;19925;-64
2023/06/26 13:49:34;;;;;;;;;;;;;;;;;;5030457;28;19925;-64
2023/06/26 13:52:01;;;;;;;;;;;;;;;;;;5031206;28;19978;-64
2023/06/26 13:54:27;;;;;;;;;;;;;;;;;;5032149;28;20008;-64
2023/06/26 13:56:57;;;;;;;;;;;;;;;;;;5030011;28;20015;-64
2023/06/26 13:59:25;;;;;;;;;;;;;;;;;;4995180;28;19925;-64
2023/06/26 14:01:51;;;;;;;;;;;;;;;;;;5030942;28;19925;-65
2023/06/26 14:04:17;;;;;;;;;;;;;;;;;;5027903;28;20504;-63
2023/06/26 14:06:45;;;;;;;;;;;;;;;;;;5026781;28;19921;-63
2023/06/26 14:09:11;;;;;;;;;;;;;;;;;;5027586;28;20320;-64
2023/06/26 14:11:37;;;;;;;;;;;;;;;;;;5030006;28;20024;-63
2023/06/26 14:14:02;;;;;;;;;;;;;;;;;;5023188;28;19966;-64
2023/06/26 14:16:29;;;;;;;;;;;;;;;;;;5030811;28;19983;-63
2023/06/26 14:18:55;;;;;;;;;;;;;;;;;;5029804;28;19987;-63
2023/06/26 14:21:21;;;;;;;;;;;;;;;;;;5010651;28;20324;-64
2023/06/26 14:23:47;;;;;;;;;;;;;;;;;;5002133;28;20000;-64
2023/06/26 14:26:13;;;;;;;;;;;;;;;;;;5010963;28;20419;-63
2023/06/26 14:28:39;;;;;;;;;;;;;;;;;;5002311;28;19933;-64
2023/06/26 14:31:04;;;;;;;;;;;;;;;;;;5008765;28;19984;-64
2023/06/26 14:33:30;;;;;;;;;;;;;;;;;;5010039;28;19921;-65
2023/06/26 14:35:56;;;;;;;;;;;;;;;;;;5009749;28;19954;-65
2023/06/26 14:38:22;;;;;;;;;;;;;;;;;;5007836;28;19936;-64
2023/06/26 14:40:48;;;;;;;;;;;;;;;;;;5005854;28;20059;-64
2023/06/26 14:43:14;;;;;;;;;;;;;;;;;;5009321;28;19929;-65
2023/06/26 14:45:40;;;;;;;;;;;;;;;;;;5008966;28;19921;-65
2023/06/26 14:48:06;;;;;;;;;;;;;;;;;;4989918;28;19932;-65
2023/06/26 14:50:32;;;;;;;;;;;;;;;;;;5007981;28;19925;-65
2023/06/26 14:52:58;;;;;;;;;;;;;;;;;;4984961;28;19968;-64
2023/06/26 14:55:23;;;;;;;;;;;;;;;;;;5010734;28;19944;-64
2023/06/26 14:57:49;;;;;;;;;;;;;;;;;;5002532;28;19929;-64
2023/06/26 15:00:15;;;;;;;;;;;;;;;;;;5001823;28;19968;-64
2023/06/26 15:02:41;;;;;;;;;;;;;;;;;;5007707;28;20019;-65
2023/06/26 15:05:07;;;;;;;;;;;;;;;;;;5004964;28;20510;-64
2023/06/26 15:07:33;;;;;;;;;;;;;;;;;;5004229;28;19952;-62
2023/06/26 15:09:59;;;;;;;;;;;;;;;;;;5009690;28;19969;-64
2023/06/26 15:12:25;;;;;;;;;;;;;;;;;;4992040;28;20609;-62
2023/06/26 15:14:51;;;;;;;;;;;;;;;;;;5009180;28;19928;-63
2023/06/26 15:17:17;;;;;;;;;;;;;;;;;;5005667;28;20303;-62
2023/06/26 15:19:43;;;;;;;;;;;;;;;;;;5006225;28;19922;-63
2023/06/26 15:22:09;;;;;;;;;;;;;;;;;;5022106;28;19932;-63
2023/06/26 15:24:35;;;;;;;;;;;;;;;;;;5026423;28;19939;-63
2023/06/26 15:27:01;;;;;;;;;;;;;;;;;;5027459;28;19925;-63
2023/06/26 15:29:27;;;;;;;;;;;;;;;;;;5027757;28;19968;-63
2023/06/26 15:31:53;;;;;;;;;;;;;;;;;;5025502;28;19967;-64
2023/06/26 15:34:19;;;;;;;;;;;;;;;;;;5009442;28;20606;-62
2023/06/26 15:36:45;;;;;;;;;;;;;;;;;;5034772;28;19955;-63
2023/06/26 15:39:11;;;;;;;;;;;;;;;;;;5035282;28;20022;-63
2023/06/26 15:41:37;;;;;;;;;;;;;;;;;;5033647;28;19925;-63
2023/06/26 15:44:03;;;;;;;;;;;;;;;;;;5030601;28;19932;-63
2023/06/26 15:46:29;;;;;;;;;;;;;;;;;;5012361;28;20053;-63
2023/06/26 15:48:55;;;;;;;;;;;;;;;;;;5023850;28;19921;-63
2023/06/26 15:51:21;;;;;;;;;;;;;;;;;;5032647;28;19925;-64
2023/06/26 15:53:47;;;;;;;;;;;;;;;;;;5031077;28;20252;-63
2023/06/26 15:56:13;;;;;;;;;;;;;;;;;;5033099;28;20359;-62
2023/06/26 15:58:44;;;;;;;;;;;;;;;;;;5016768;28;19952;-65
2023/06/26 16:01:11;;;;;;;;;;;;;;;;;;5033838;28;19921;-63
2023/06/26 16:03:36;;;;;;;;;;;;;;;;;;5031437;28;19925;-62
2023/06/26 16:06:02;;;;;;;;;;;;;;;;;;5033530;28;19921;-63
2023/06/26 16:08:28;;;;;;;;;;;;;;;;;;5032201;28;20455;-63
2023/06/26 16:10:54;;;;;;;;;;;;;;;;;;5033694;28;19929;-63
2023/06/26 16:13:21;;;;;;;;;;;;;;;;;;5033737;28;19925;-63
2023/06/26 16:15:47;;;;;;;;;;;;;;;;;;5014275;28;19927;-63
2023/06/26 16:18:13;;;;;;;;;;;;;;;;;;5013882;28;19952;-63
2023/06/26 16:20:39;;;;;;;;;;;;;;;;;;5023000;28;19922;-63
2023/06/26 16:23:05;;;;;;;;;;;;;;;;;;4999742;28;19932;-63
2023/06/26 16:25:31;;;;;;;;;;;;;;;;;;5031365;28;19925;-63
2023/06/26 16:27:57;;;;;;;;;;;;;;;;;;5027674;28;19971;-63
2023/06/26 16:30:23;;;;;;;;;;;;;;;;;;5027700;28;19936;-63
2023/06/26 16:32:49;;;;;;;;;;;;;;;;;;5020739;28;19922;-63
2023/06/26 16:35:15;;;;;;;;;;;;;;;;;;5028919;28;19954;-62
2023/06/26 16:37:41;;;;;;;;;;;;;;;;;;5029426;28;19956;-63